Weather reports worldwide

Advertisment
Canizares, Spain (8230): temperature & dewpoint: 17.10.2020 01:00:00 - 23.10.2020 01:00:00 (CEST)Canizares, Spain (8230): gusts: 17.10.2020 01:00:00 - 23.10.2020 01:00:00 (CEST)Canizares, Spain (8230): precipitation: 17.10.2020 01:00:00 - 23.10.2020 01:00:00 (CEST)
Date & Time tt [°C] td [°C] fx [km/h] fx [kn] rr [mm]
23.10.2020 01:00:00 - - - - -
23.10.2020 00:00:00 12,2 12,0 9 5 0,0
22.10.2020 23:00:00 11,8 11,7 0 0 0,0
22.10.2020 22:00:00 11,8 11,7 0 0 0,0
22.10.2020 21:00:00 12,0 11,9 4 2 0,1
22.10.2020 20:00:00 13,3 13,2 7 4 -
22.10.2020 19:00:00 14,3 14,1 8 4 0,0
22.10.2020 18:00:00 14,9 14,7 9 5 0,1
22.10.2020 17:00:00 15,4 15,3 9 5 0,0
22.10.2020 16:00:00 15,2 15,1 5 3 0,2
22.10.2020 15:00:00 14,5 14,3 8 5 0,1
22.10.2020 14:00:00 14,3 14,1 10 5 -
22.10.2020 13:00:00 15,8 15,5 9 5 0,0
22.10.2020 12:00:00 15,5 15,3 7 4 0,0
22.10.2020 11:00:00 13,1 13,0 0 0 0,0
22.10.2020 10:00:00 10,9 10,8 0 0 0,0
22.10.2020 09:00:00 9,6 9,4 0 0 0,0
22.10.2020 08:00:00 9,5 9,3 0 0 -
22.10.2020 07:00:00 - - - - -
22.10.2020 06:00:00 9,1 8,9 0 0 0,1
22.10.2020 05:00:00 9,8 9,7 0 0 0,0
22.10.2020 04:00:00 11,3 11,1 0 0 0,0
22.10.2020 03:00:00 11,4 11,2 0 0 0,0
22.10.2020 02:00:00 11,4 11,2 0 0 -
22.10.2020 01:00:00 11,3 11,1 0 0 0,0
22.10.2020 00:00:00 11,1 11,0 0 0 0,0
21.10.2020 23:00:00 11,2 11,0 1 1 0,0
21.10.2020 22:00:00 11,8 11,7 5 3 0,0
21.10.2020 21:00:00 12,2 12,0 3 2 0,0
21.10.2020 20:00:00 13,5 13,4 6 3 -
21.10.2020 19:00:00 15,3 15,0 8 5 0,0
21.10.2020 18:00:00 16,2 15,3 9 5 0,0
21.10.2020 17:00:00 16,7 15,3 13 7 0,0
21.10.2020 16:00:00 16,9 16,1 17 9 0,0
21.10.2020 15:00:00 17,3 15,8 14 8 0,0
21.10.2020 14:00:00 17,7 16,7 26 14 -
21.10.2020 13:00:00 16,7 15,9 14 8 0,0
21.10.2020 12:00:00 14,8 14,6 22 12 0,0
21.10.2020 11:00:00 14,4 14,2 14 7 0,0
21.10.2020 10:00:00 13,6 13,5 9 5 0,0
21.10.2020 09:00:00 12,7 12,5 10 6 0,1
21.10.2020 08:00:00 13,2 13,1 21 11 -
21.10.2020 07:00:00 14,0 13,9 22 12 0,0
21.10.2020 06:00:00 14,0 13,9 33 18 0,1
21.10.2020 05:00:00 14,2 14,0 15 8 0,0
21.10.2020 04:00:00 13,4 13,3 22 12 1,9
21.10.2020 03:00:00 14,3 14,1 22 12 0,3
21.10.2020 02:00:00 16,1 14,8 13 7 -
21.10.2020 01:00:00 15,3 15,0 14 7 0,0
21.10.2020 00:00:00 15,9 14,9 12 6 0,0
20.10.2020 23:00:00 17,6 13,6 19 10 0,0
20.10.2020 22:00:00 17,8 12,6 15 8 0,0
20.10.2020 21:00:00 18,9 12,8 19 10 0,0
20.10.2020 20:00:00 18,9 11,7 24 13 -
20.10.2020 19:00:00 19,2 12,0 19 11 0,0
20.10.2020 18:00:00 19,9 12,4 10 6 0,0
20.10.2020 17:00:00 20,4 12,6 14 7 0,1
20.10.2020 16:00:00 20,9 14,0 12 6 0,0
20.10.2020 15:00:00 17,8 15,8 8 4 0,0
20.10.2020 14:00:00 14,2 14,0 4 2 -
20.10.2020 13:00:00 12,9 12,7 5 3 0,0
20.10.2020 12:00:00 12,7 12,5 0 0 0,1
20.10.2020 11:00:00 12,5 12,3 3 1 1,1
20.10.2020 10:00:00 12,1 12,0 4 2 0,0
20.10.2020 09:00:00 12,0 11,9 3 1 0,1
20.10.2020 08:00:00 12,7 12,5 3 2 -
20.10.2020 07:00:00 13,4 12,7 5 3 0,0
20.10.2020 06:00:00 14,8 13,1 8 5 0,0
20.10.2020 05:00:00 15,2 13,6 8 5 0,0
20.10.2020 04:00:00 14,8 13,7 6 3 0,0
20.10.2020 03:00:00 15,6 14,6 8 5 0,0
20.10.2020 02:00:00 12,9 12,7 5 3 -
20.10.2020 01:00:00 9,7 9,6 0 0 0,0
20.10.2020 00:00:00 9,6 9,4 0 0 0,0
19.10.2020 23:00:00 9,4 9,3 0 0 0,0
19.10.2020 22:00:00 10,0 9,8 4 2 0,0
19.10.2020 21:00:00 10,8 10,6 0 0 0,0
19.10.2020 20:00:00 12,0 11,9 0 0 -
19.10.2020 19:00:00 14,9 12,5 5 3 0,0
19.10.2020 18:00:00 19,6 10,3 14 8 0,0
19.10.2020 17:00:00 22,4 10,9 12 7 0,0
19.10.2020 16:00:00 22,8 10,9 11 6 0,0
19.10.2020 15:00:00 21,5 10,0 18 10 0,0
19.10.2020 14:00:00 21,4 10,3 14 7 -
19.10.2020 13:00:00 20,9 10,0 11 6 0,0
19.10.2020 12:00:00 18,3 13,8 3 2 0,0
19.10.2020 11:00:00 10,6 10,4 0 0 0,0
19.10.2020 10:00:00 2,3 2,1 0 0 0,0
19.10.2020 09:00:00 1,0 0,9 0 0 0,0
19.10.2020 08:00:00 0,7 0,6 0 0 -
19.10.2020 07:00:00 1,1 1,1 0 0 0,0
19.10.2020 06:00:00 1,3 1,1 0 0 0,0
19.10.2020 05:00:00 1,8 1,7 0 0 0,0
19.10.2020 04:00:00 2,5 2,3 0 0 0,0
19.10.2020 03:00:00 3,2 3,0 0 0 0,0
19.10.2020 02:00:00 3,9 3,8 1 0 -
19.10.2020 01:00:00 4,5 4,3 1 0 0,0
19.10.2020 00:00:00 5,0 4,8 0 0 0,0
18.10.2020 23:00:00 5,7 5,6 0 0 0,0
18.10.2020 22:00:00 6,7 6,5 0 0 0,0
18.10.2020 21:00:00 7,9 7,7 0 0 0,0
18.10.2020 20:00:00 10,1 9,9 0 0 -
18.10.2020 19:00:00 13,7 11,8 0 0 0,0
18.10.2020 18:00:00 18,6 9,4 5 3 0,0
18.10.2020 17:00:00 19,9 8,0 8 4 0,0
18.10.2020 16:00:00 21,4 8,9 8 5 0,0
18.10.2020 15:00:00 19,4 8,4 8 4 0,0
18.10.2020 14:00:00 18,2 9,6 8 4 -
18.10.2020 13:00:00 18,4 10,5 4 2 0,0
18.10.2020 12:00:00 14,7 11,1 0 0 0,0
18.10.2020 11:00:00 9,4 9,3 0 0 0,0
18.10.2020 10:00:00 1,6 1,5 0 0 0,0
18.10.2020 09:00:00 0,3 0,2 0 0 0,0
18.10.2020 08:00:00 0,1 0,0 0 0 -
18.10.2020 07:00:00 0,2 0,0 0 0 0,0
18.10.2020 06:00:00 0,3 0,2 0 0 0,0
18.10.2020 05:00:00 0,5 0,4 0 0 0,0
18.10.2020 04:00:00 0,8 0,6 0 0 0,0
18.10.2020 03:00:00 1,3 1,1 0 0 0,0
18.10.2020 02:00:00 1,8 1,7 0 0 -
18.10.2020 01:00:00 2,2 2,1 0 0 0,0
18.10.2020 00:00:00 2,9 2,7 0 0 0,0
17.10.2020 23:00:00 3,6 3,4 0 0 0,0
17.10.2020 22:00:00 4,4 4,3 0 0 0,0
17.10.2020 21:00:00 5,7 5,6 0 0 0,0
17.10.2020 20:00:00 7,1 7,0 0 0 -
17.10.2020 19:00:00 9,8 8,9 1 1 0,0
17.10.2020 18:00:00 13,8 7,6 6 3 0,0
17.10.2020 17:00:00 16,3 7,0 8 4 0,0
17.10.2020 16:00:00 17,2 7,6 10 5 0,0
17.10.2020 15:00:00 14,9 6,2 8 4 0,0
17.10.2020 14:00:00 14,8 6,8 12 6 -
17.10.2020 13:00:00 15,0 7,0 6 4 0,0
17.10.2020 12:00:00 13,9 9,3 0 0 0,0
17.10.2020 11:00:00 7,2 7,0 0 0 0,0
17.10.2020 10:00:00 1,2 1,1 0 0 0,0
17.10.2020 09:00:00 - - - - -
17.10.2020 08:00:00 - - - - -
17.10.2020 07:00:00 - - - - -
17.10.2020 06:00:00 - - - - -
17.10.2020 05:00:00 0,0 0,0 0 0 0,0
17.10.2020 04:00:00 0,2 0,0 0 0 0,0
17.10.2020 03:00:00 0,6 0,4 0 0 0,0
17.10.2020 02:00:00 1,0 0,9 0 0 -
17.10.2020 01:00:00 1,4 1,3 0 0 0,0

tt = temperature
td = dewpoint
fx = gusts
rr = precipitation

Next stations